createdAt,value
2022-11-16T00:02:07.223Z,14.63
2022-11-16T00:04:54.172Z,13.13
2022-11-16T00:07:41.153Z,13.18
2022-11-16T00:10:28.385Z,13.13
2022-11-16T00:13:17.122Z,10.23
2022-11-16T00:16:05.600Z,11.15
2022-11-16T00:18:57.423Z,12.13
2022-11-16T00:21:44.696Z,15.50
2022-11-16T00:24:31.494Z,12.13
2022-11-16T00:27:18.496Z,11.55
2022-11-16T00:30:08.059Z,11.60
2022-11-16T00:32:55.007Z,10.27
2022-11-16T00:35:42.064Z,12.73
2022-11-16T00:38:29.344Z,11.27
2022-11-16T00:41:16.377Z,10.70
2022-11-16T00:44:03.267Z,13.10
2022-11-16T00:46:52.048Z,10.02
2022-11-16T00:49:39.831Z,9.63
2022-11-16T00:52:27.021Z,10.38
2022-11-16T00:55:14.857Z,11.35
2022-11-16T00:58:01.810Z,12.27
2022-11-16T01:00:49.806Z,10.20
2022-11-16T01:03:38.694Z,11.20
2022-11-16T01:06:25.971Z,11.65
2022-11-16T01:09:13.329Z,9.68
2022-11-16T01:12:14.742Z,11.50
2022-11-16T01:15:01.647Z,13.82
2022-11-16T01:17:49.433Z,8.82
2022-11-16T01:20:37.670Z,12.15
2022-11-16T01:23:24.983Z,10.65
2022-11-16T01:26:12.204Z,10.85
2022-11-16T01:29:01.423Z,10.00
2022-11-16T01:31:52.794Z,10.50
2022-11-16T01:34:40.135Z,11.48
2022-11-16T01:37:41.592Z,11.10
2022-11-16T01:40:29.291Z,12.10
2022-11-16T01:43:19.194Z,13.68
2022-11-16T01:46:08.236Z,13.40
2022-11-16T01:49:01.736Z,12.60
2022-11-16T01:52:00.944Z,10.98
2022-11-16T01:54:54.973Z,12.43
2022-11-16T02:00:33.120Z,11.18
2022-11-16T02:03:39.601Z,9.63
2022-11-16T02:06:40.192Z,10.93
2022-11-16T02:09:55.162Z,9.05
2022-11-16T02:13:00.884Z,9.52
2022-11-16T02:16:07.728Z,12.98
2022-11-16T02:19:10.069Z,9.00
2022-11-16T02:22:07.801Z,12.27
2022-11-16T02:25:01.694Z,15.15
2022-11-16T02:28:11.929Z,10.13
2022-11-16T02:31:05.067Z,11.90
2022-11-16T02:33:57.241Z,10.85
2022-11-16T02:36:48.139Z,11.52
2022-11-16T02:39:38.369Z,11.57
2022-11-16T02:42:32.407Z,13.98
2022-11-16T02:45:23.731Z,13.23
2022-11-16T02:48:19.017Z,12.17
2022-11-16T02:51:07.985Z,15.07
2022-11-16T02:54:04.024Z,16.60
2022-11-16T02:56:57.673Z,14.25
2022-11-16T02:59:53.493Z,12.85
2022-11-16T03:02:49.041Z,17.95
2022-11-16T03:05:45.663Z,16.05
2022-11-16T03:08:36.326Z,14.20
2022-11-16T03:11:38.914Z,14.02
2022-11-16T03:14:33.482Z,18.70
2022-11-16T03:17:23.800Z,19.60
2022-11-16T03:20:14.983Z,15.27
2022-11-16T03:23:07.645Z,17.60
2022-11-16T03:25:58.238Z,17.63
2022-11-16T03:28:53.249Z,20.83
2022-11-16T03:31:46.316Z,17.42
2022-11-16T03:34:40.189Z,16.85
2022-11-16T03:37:28.769Z,17.27
2022-11-16T03:40:21.903Z,19.98
2022-11-16T03:43:11.508Z,18.38
2022-11-16T03:46:00.365Z,15.98
2022-11-16T03:48:48.101Z,17.88
2022-11-16T03:51:43.507Z,18.77
2022-11-16T03:54:30.809Z,19.55
2022-11-16T03:57:19.063Z,18.63
2022-11-16T04:00:13.588Z,20.33
2022-11-16T04:03:00.528Z,20.77
2022-11-16T04:06:03.251Z,22.13
2022-11-16T04:09:07.870Z,21.33
2022-11-16T04:11:56.730Z,21.30
2022-11-16T04:15:03.557Z,21.90
2022-11-16T04:18:10.940Z,23.10
2022-11-16T04:21:15.910Z,23.02
2022-11-16T04:24:13.843Z,20.83
2022-11-16T04:27:13.870Z,23.50
2022-11-16T04:30:03.755Z,22.35
2022-11-16T04:33:07.385Z,22.48
2022-11-16T04:36:15.407Z,22.27
2022-11-16T04:39:05.654Z,25.00
2022-11-16T04:42:10.172Z,25.13
2022-11-16T04:45:14.846Z,24.40
2022-11-16T04:48:07.897Z,24.50
2022-11-16T04:50:55.705Z,24.45
2022-11-16T04:53:42.917Z,20.83
2022-11-16T04:56:40.524Z,25.10
2022-11-16T04:59:28.246Z,24.27
2022-11-16T05:02:15.486Z,23.88
2022-11-16T05:05:11.545Z,26.55
2022-11-16T05:08:01.275Z,23.83
2022-11-16T05:10:52.730Z,25.15
2022-11-16T05:13:40.256Z,28.08
2022-11-16T05:16:28.197Z,27.80
2022-11-16T05:19:29.183Z,27.95
2022-11-16T05:25:07.253Z,24.88
2022-11-16T05:27:54.205Z,25.85
2022-11-16T05:30:41.091Z,31.13
2022-11-16T05:33:28.252Z,28.77
2022-11-16T05:36:15.381Z,24.05
2022-11-16T05:39:04.950Z,28.20
2022-11-16T05:41:56.154Z,27.58
2022-11-16T05:44:43.121Z,28.15
2022-11-16T05:47:30.103Z,27.23
2022-11-16T05:50:18.541Z,24.45
2022-11-16T05:53:19.725Z,25.83
2022-11-16T05:56:10.371Z,25.40
2022-11-16T05:59:00.073Z,24.92
2022-11-16T06:01:48.083Z,26.73
2022-11-16T06:04:35.874Z,28.30
2022-11-16T06:07:23.499Z,21.25
2022-11-16T06:10:10.944Z,24.35
2022-11-16T06:13:00.583Z,24.30
2022-11-16T06:15:54.373Z,23.10
2022-11-16T06:18:44.628Z,23.92
2022-11-16T06:21:34.277Z,25.27
2022-11-16T06:24:24.639Z,24.17
2022-11-16T06:27:12.239Z,24.88
2022-11-16T06:30:02.313Z,22.08
2022-11-16T06:32:49.819Z,23.52
2022-11-16T06:35:36.797Z,24.65
2022-11-16T06:38:25.259Z,26.70
2022-11-16T06:41:14.338Z,20.00
2022-11-16T06:44:06.067Z,21.85
2022-11-16T06:46:58.090Z,20.40
2022-11-16T06:49:47.500Z,22.15
2022-11-16T06:52:40.921Z,19.17
2022-11-16T06:55:28.678Z,19.98
2022-11-16T06:58:15.892Z,20.80
2022-11-16T07:01:08.290Z,22.05
2022-11-16T07:03:59.682Z,19.27
2022-11-16T07:06:47.721Z,23.08
2022-11-16T07:09:36.620Z,24.13
2022-11-16T07:12:24.335Z,19.25
2022-11-16T07:15:12.134Z,18.73
2022-11-16T07:18:06.152Z,19.90
2022-11-16T07:20:56.203Z,25.38
2022-11-16T07:23:43.943Z,26.65
2022-11-16T07:26:35.642Z,21.45
2022-11-16T07:29:29.922Z,20.83
2022-11-16T07:32:40.050Z,21.17
2022-11-16T07:35:33.157Z,22.23
2022-11-16T07:38:21.630Z,24.30
2022-11-16T07:41:10.631Z,23.23
2022-11-16T07:44:07.367Z,25.33
2022-11-16T07:47:02.234Z,19.65
2022-11-16T07:49:52.180Z,20.60
2022-11-16T07:52:41.368Z,21.52
2022-11-16T07:55:38.759Z,26.25
2022-11-16T07:58:27.166Z,25.27
2022-11-16T08:01:18.136Z,18.13
2022-11-16T08:04:08.188Z,20.92
2022-11-16T08:06:56.135Z,21.25
2022-11-16T08:09:44.347Z,23.33
2022-11-16T08:12:36.746Z,23.55
2022-11-16T08:15:25.602Z,22.05
2022-11-16T08:18:13.295Z,22.75
2022-11-16T08:21:02.138Z,19.00
2022-11-16T08:23:56.811Z,26.50
2022-11-16T08:26:46.737Z,20.50
2022-11-16T08:29:36.842Z,19.10
2022-11-16T08:32:29.901Z,41.47
2022-11-16T08:35:17.864Z,38.10
2022-11-16T08:38:06.322Z,37.45
2022-11-16T08:40:57.512Z,31.13
2022-11-16T08:43:47.503Z,22.30
2022-11-16T08:46:37.005Z,20.10
2022-11-16T08:49:35.770Z,17.23
2022-11-16T08:52:23.655Z,22.52
2022-11-16T08:55:14.132Z,17.52
2022-11-16T08:58:03.784Z,22.05
2022-11-16T09:00:51.505Z,15.95
2022-11-16T09:03:41.027Z,21.73
2022-11-16T09:06:29.526Z,20.58
2022-11-16T09:09:17.345Z,15.80
2022-11-16T09:12:04.700Z,18.05
2022-11-16T09:14:52.546Z,18.15
2022-11-16T09:17:40.326Z,39.05
2022-11-16T09:20:29.561Z,79.78
2022-11-16T09:23:22.263Z,29.27
2022-11-16T09:26:14.191Z,19.85
2022-11-16T09:29:04.603Z,15.32
2022-11-16T09:31:52.411Z,14.57
2022-11-16T09:34:39.732Z,18.10
2022-11-16T09:37:28.602Z,14.18
2022-11-16T09:40:16.436Z,13.35
2022-11-16T09:43:16.448Z,15.25
2022-11-16T09:46:17.749Z,12.70
2022-11-16T09:49:17.529Z,15.35
2022-11-16T09:52:11.386Z,10.68
2022-11-16T09:55:03.804Z,14.18
2022-11-16T09:57:55.200Z,11.45
2022-11-16T10:00:50.255Z,15.88
2022-11-16T10:03:44.174Z,12.50
2022-11-16T10:06:46.006Z,11.30
2022-11-16T10:09:33.985Z,13.68
2022-11-16T10:12:33.065Z,11.60
2022-11-16T10:15:35.658Z,14.07
2022-11-16T10:18:36.002Z,11.50
2022-11-16T10:21:37.692Z,13.82
2022-11-16T10:24:43.449Z,11.70
2022-11-16T10:27:30.590Z,12.27
2022-11-16T10:30:21.313Z,12.82
2022-11-16T10:33:13.803Z,17.38
2022-11-16T10:36:03.608Z,19.77
2022-11-16T10:38:50.950Z,12.50
2022-11-16T10:41:44.081Z,13.02
2022-11-16T10:44:39.426Z,15.02
2022-11-16T10:47:38.773Z,12.07
2022-11-16T10:50:36.304Z,17.17
2022-11-16T10:53:35.157Z,13.77
2022-11-16T10:56:27.017Z,15.90
2022-11-16T10:59:15.971Z,13.80
2022-11-16T11:02:34.995Z,12.63
2022-11-16T11:05:23.026Z,12.30
2022-11-16T11:08:12.915Z,14.82
2022-11-16T11:11:23.253Z,13.68
2022-11-16T11:14:13.467Z,12.90
2022-11-16T11:17:14.917Z,13.75
2022-11-16T11:20:06.870Z,14.07
2022-11-16T11:22:57.439Z,11.88
2022-11-16T11:25:53.795Z,11.50
2022-11-16T11:28:50.779Z,8.70
2022-11-16T11:31:44.564Z,10.98
2022-11-16T11:37:32.935Z,10.68
2022-11-16T11:40:23.068Z,8.95
2022-11-16T11:43:23.949Z,9.57
2022-11-16T11:46:17.141Z,6.80
2022-11-16T11:52:05.248Z,11.52
2022-11-16T11:55:00.369Z,9.85
2022-11-16T11:57:55.345Z,10.45
2022-11-16T12:01:01.142Z,8.95
2022-11-16T12:04:10.908Z,9.40
2022-11-16T12:07:16.545Z,8.55
2022-11-16T12:10:18.720Z,7.10
2022-11-16T12:13:28.162Z,9.18
2022-11-16T12:16:25.421Z,9.10
2022-11-16T12:19:33.958Z,11.38
2022-11-16T12:22:43.768Z,9.05
2022-11-16T12:25:45.278Z,8.65
2022-11-16T12:28:51.856Z,12.77
2022-11-16T12:32:02.328Z,9.52
2022-11-16T12:35:06.047Z,9.75
2022-11-16T12:38:02.933Z,16.70
2022-11-16T12:41:10.396Z,7.80
2022-11-16T12:44:03.583Z,6.57
2022-11-16T12:47:06.051Z,7.22
2022-11-16T12:50:10.690Z,9.38
2022-11-16T12:53:20.393Z,6.93
2022-11-16T12:56:28.014Z,9.43
2022-11-16T12:59:31.688Z,6.72
2022-11-16T13:02:40.731Z,7.55
2022-11-16T13:05:50.130Z,7.05
2022-11-16T13:08:53.822Z,7.20
2022-11-16T13:11:50.565Z,6.13
2022-11-16T13:14:48.430Z,7.95
2022-11-16T13:17:44.544Z,8.82
2022-11-16T13:20:43.797Z,8.13
2022-11-16T13:23:48.873Z,4.70
2022-11-16T13:29:40.762Z,6.45
2022-11-16T13:32:49.904Z,4.45
2022-11-16T13:35:42.281Z,3.70
2022-11-16T13:38:54.411Z,6.22
2022-11-16T13:41:42.847Z,5.68
2022-11-16T13:44:37.223Z,4.60
2022-11-16T13:50:23.993Z,4.68
2022-11-16T13:54:10.909Z,5.80
2022-11-16T13:56:29.227Z,2.53
2022-11-16T13:59:26.461Z,3.85
2022-11-16T14:02:33.643Z,5.50
2022-11-16T14:05:46.702Z,5.38
2022-11-16T14:08:53.687Z,5.57
2022-11-16T14:11:43.944Z,2.97
2022-11-16T14:15:04.020Z,5.07
2022-11-16T14:18:00.645Z,3.92
2022-11-16T14:21:08.333Z,4.43
2022-11-16T14:24:20.144Z,3.70
2022-11-16T14:27:18.686Z,4.30
2022-11-16T14:30:19.384Z,6.35
2022-11-16T14:33:36.574Z,3.50
2022-11-16T14:36:47.259Z,4.65
2022-11-16T14:39:43.135Z,4.00
2022-11-16T14:42:54.409Z,4.38
2022-11-16T14:45:56.255Z,3.83
2022-11-16T14:48:53.248Z,3.78
2022-11-16T14:51:47.358Z,5.32
2022-11-16T14:54:42.694Z,5.75
2022-11-16T14:57:32.975Z,3.55
2022-11-16T15:00:27.266Z,7.90
2022-11-16T15:03:27.720Z,7.63
2022-11-16T15:06:32.412Z,6.72
2022-11-16T15:09:41.461Z,8.07
2022-11-16T15:12:54.552Z,7.20
2022-11-16T15:15:49.316Z,9.10
2022-11-16T15:18:40.736Z,7.82
2022-11-16T15:21:33.634Z,8.27
2022-11-16T15:24:31.859Z,9.70
2022-11-16T15:27:38.695Z,5.45
2022-11-16T15:30:31.607Z,7.43
2022-11-16T15:33:25.985Z,8.53
2022-11-16T15:36:35.727Z,6.72
2022-11-16T15:39:30.456Z,9.82
2022-11-16T15:42:20.795Z,6.00
2022-11-16T15:45:15.958Z,5.50
2022-11-16T15:48:06.329Z,7.43
2022-11-16T15:51:07.343Z,5.45
2022-11-16T15:54:16.683Z,7.13
2022-11-16T15:57:11.801Z,5.53
2022-11-16T16:00:03.675Z,7.10
2022-11-16T16:02:56.552Z,6.82
2022-11-16T16:05:47.125Z,8.32
2022-11-16T16:08:40.858Z,8.93
2022-11-16T16:11:33.773Z,8.57
2022-11-16T16:14:29.133Z,8.68
2022-11-16T16:17:28.292Z,8.77
2022-11-16T16:20:21.026Z,11.00
2022-11-16T16:23:15.257Z,8.93
2022-11-16T16:26:07.584Z,8.40
2022-11-16T16:29:00.570Z,8.35
2022-11-16T16:31:51.697Z,9.60
2022-11-16T16:34:42.506Z,14.20
2022-11-16T16:37:34.360Z,10.57
2022-11-16T16:43:16.502Z,11.98
2022-11-16T16:46:09.569Z,10.90
2022-11-16T16:51:52.801Z,11.80
2022-11-16T16:54:44.637Z,9.30
2022-11-16T16:57:34.512Z,7.72
2022-11-16T17:00:25.641Z,11.27
2022-11-16T17:03:20.512Z,11.98
2022-11-16T17:06:10.251Z,8.98
2022-11-16T17:09:00.855Z,11.93
2022-11-16T17:11:50.968Z,11.43
2022-11-16T17:14:41.989Z,10.23
2022-11-16T17:17:32.732Z,11.43
2022-11-16T17:20:24.968Z,14.65
2022-11-16T17:23:16.696Z,12.45
2022-11-16T17:26:10.407Z,10.13
2022-11-16T17:29:02.954Z,15.00
2022-11-16T17:31:54.034Z,11.30
2022-11-16T17:34:44.827Z,20.42
2022-11-16T17:37:35.428Z,11.15
2022-11-16T17:40:25.996Z,13.18
2022-11-16T17:43:16.286Z,15.75
2022-11-16T17:46:09.182Z,10.55
2022-11-16T17:49:00.143Z,11.80
2022-11-16T17:51:50.671Z,11.18
2022-11-16T17:54:42.724Z,13.65
2022-11-16T17:57:33.896Z,16.33
2022-11-16T18:00:25.441Z,13.80
2022-11-16T18:03:14.893Z,14.27
2022-11-16T18:06:08.115Z,16.85
2022-11-16T18:09:00.364Z,16.67
2022-11-16T18:11:53.332Z,16.58
2022-11-16T18:14:59.927Z,12.57
2022-11-16T18:17:55.940Z,17.88
2022-11-16T18:20:51.974Z,17.08
2022-11-16T18:23:43.243Z,18.33
2022-11-16T18:26:33.309Z,13.07
2022-11-16T18:29:26.305Z,13.38
2022-11-16T18:32:15.371Z,13.30
2022-11-16T18:35:11.021Z,15.98
2022-11-16T18:38:03.190Z,10.15
2022-11-16T18:41:07.730Z,12.85
2022-11-16T18:43:59.886Z,10.57
2022-11-16T18:46:52.107Z,13.18
2022-11-16T18:49:42.773Z,12.70
2022-11-16T18:52:35.432Z,12.48
2022-11-16T18:55:25.707Z,11.77
2022-11-16T18:58:43.409Z,10.95
2022-11-16T19:01:28.789Z,13.73
2022-11-16T19:04:22.161Z,9.27
2022-11-16T19:07:14.731Z,12.43
2022-11-16T19:10:05.994Z,13.45
2022-11-16T19:12:57.048Z,10.23
2022-11-16T19:15:47.717Z,9.70
2022-11-16T19:18:40.716Z,10.95
2022-11-16T19:21:35.678Z,11.40
2022-11-16T19:24:27.291Z,12.82
2022-11-16T19:27:18.904Z,11.25
2022-11-16T19:30:11.906Z,14.75
2022-11-16T19:33:07.382Z,21.05
2022-11-16T19:35:57.757Z,15.73
2022-11-16T19:38:52.016Z,13.27
2022-11-16T19:41:43.505Z,14.85
2022-11-16T19:44:33.234Z,11.20
2022-11-16T19:47:26.773Z,13.50
2022-11-16T19:53:08.985Z,11.52
2022-11-16T19:56:01.796Z,14.00
2022-11-16T19:58:52.207Z,11.25
2022-11-16T20:01:43.197Z,11.05
2022-11-16T20:04:35.317Z,12.73
2022-11-16T20:07:26.173Z,14.13
2022-11-16T20:10:16.606Z,11.55
2022-11-16T20:13:08.344Z,11.32
2022-11-16T20:15:57.449Z,13.13
2022-11-16T20:18:49.416Z,10.75
2022-11-16T20:21:42.187Z,9.98
2022-11-16T20:24:32.739Z,13.75
2022-11-16T20:27:23.592Z,10.35
2022-11-16T20:30:17.618Z,10.27
2022-11-16T20:33:08.869Z,9.82
2022-11-16T20:36:04.714Z,7.28
2022-11-16T20:38:55.403Z,9.40
2022-11-16T20:41:47.097Z,9.07
2022-11-16T20:44:43.793Z,7.82
2022-11-16T20:47:36.631Z,10.23
2022-11-16T20:50:27.187Z,11.43
2022-11-16T20:53:17.623Z,9.10
2022-11-16T20:56:09.683Z,10.07
2022-11-16T20:59:04.174Z,14.60
2022-11-16T21:01:56.072Z,9.40
2022-11-16T21:04:47.312Z,9.68
2022-11-16T21:07:38.859Z,11.57
2022-11-16T21:10:32.982Z,14.38
2022-11-16T21:13:37.744Z,11.02
2022-11-16T21:16:27.071Z,11.38
2022-11-16T21:19:15.088Z,9.55
2022-11-16T21:22:06.247Z,12.82
2022-11-16T21:24:55.312Z,12.43
2022-11-16T21:27:45.854Z,10.90
2022-11-16T21:30:36.017Z,11.38
2022-11-16T21:33:27.626Z,8.85
2022-11-16T21:36:21.632Z,13.38
2022-11-16T21:39:14.921Z,8.93
2022-11-16T21:42:05.356Z,9.93
2022-11-16T21:44:55.692Z,10.10
2022-11-16T21:47:46.390Z,15.57
2022-11-16T21:50:38.377Z,9.18
2022-11-16T21:53:27.381Z,13.85
2022-11-16T21:56:22.354Z,11.55
2022-11-16T21:59:12.745Z,10.25
2022-11-16T22:02:03.635Z,11.18
2022-11-16T22:05:06.610Z,9.52
2022-11-16T22:07:54.647Z,11.05
2022-11-16T22:10:43.696Z,9.18
2022-11-16T22:13:36.348Z,8.45
2022-11-16T22:16:27.148Z,9.23
2022-11-16T22:19:17.381Z,9.32
2022-11-16T22:22:07.320Z,9.38
2022-11-16T22:24:57.555Z,8.82
2022-11-16T22:28:19.122Z,10.30
2022-11-16T22:31:08.009Z,10.57
2022-11-16T22:33:57.785Z,10.18
2022-11-16T22:36:47.273Z,11.05
2022-11-16T22:39:37.641Z,12.43
2022-11-16T22:42:27.237Z,11.77
2022-11-16T22:45:17.243Z,11.25
2022-11-16T22:48:08.796Z,10.05
2022-11-16T22:51:07.280Z,10.65
2022-11-16T22:53:57.704Z,10.15
2022-11-16T22:56:47.429Z,10.20
2022-11-16T22:59:39.839Z,12.18
2022-11-16T23:02:32.257Z,11.02
2022-11-16T23:05:22.865Z,8.32
2022-11-16T23:08:11.965Z,6.85
2022-11-16T23:11:16.512Z,10.02
2022-11-16T23:14:23.430Z,8.95
2022-11-16T23:17:11.336Z,8.43
2022-11-16T23:20:17.905Z,9.18
2022-11-16T23:23:35.458Z,9.50
2022-11-16T23:26:43.971Z,9.70
2022-11-16T23:29:32.722Z,9.65
2022-11-16T23:32:20.369Z,8.15
2022-11-16T23:35:08.111Z,10.48
2022-11-16T23:37:59.852Z,8.90
2022-11-16T23:40:49.762Z,9.85
2022-11-16T23:43:52.228Z,9.25
2022-11-16T23:46:40.489Z,6.95
2022-11-16T23:49:30.792Z,7.63
2022-11-16T23:52:19.627Z,8.43
2022-11-16T23:55:10.093Z,8.10
2022-11-16T23:58:00.138Z,9.55
